createdAt,value
2022-11-18T00:01:57.348Z,25.40
2022-11-18T00:04:26.538Z,25.40
2022-11-18T00:06:55.767Z,25.40
2022-11-18T00:09:25.035Z,25.40
2022-11-18T00:12:12.356Z,25.50
2022-11-18T00:14:41.501Z,25.50
2022-11-18T00:17:10.639Z,25.60
2022-11-18T00:19:41.867Z,25.60
2022-11-18T00:22:15.610Z,25.60
2022-11-18T00:24:44.819Z,25.70
2022-11-18T00:27:13.987Z,25.70
2022-11-18T00:29:43.925Z,25.80
2022-11-18T00:32:13.176Z,25.80
2022-11-18T00:34:43.426Z,25.80
2022-11-18T00:37:12.599Z,25.90
2022-11-18T00:39:41.798Z,25.90
2022-11-18T00:42:46.331Z,26.00
2022-11-18T00:45:15.659Z,26.00
2022-11-18T00:47:44.882Z,26.10
2022-11-18T00:50:14.571Z,26.20
2022-11-18T00:52:44.937Z,26.20
2022-11-18T00:55:14.496Z,26.30
2022-11-18T00:57:43.626Z,26.40
2022-11-18T01:00:13.554Z,26.40
2022-11-18T01:02:42.748Z,26.40
2022-11-18T01:05:11.995Z,26.50
2022-11-18T01:07:41.293Z,26.50
2022-11-18T01:10:13.397Z,26.60
2022-11-18T01:13:00.827Z,26.60
2022-11-18T01:15:30.011Z,26.70
2022-11-18T01:18:03.724Z,26.70
2022-11-18T01:20:35.823Z,26.80
2022-11-18T01:23:05.414Z,26.90
2022-11-18T01:25:36.300Z,27.00
2022-11-18T01:28:08.922Z,27.10
2022-11-18T01:30:42.163Z,27.10
2022-11-18T01:33:14.442Z,27.20
2022-11-18T01:35:50.214Z,27.30
2022-11-18T01:38:19.910Z,27.40
2022-11-18T01:40:50.956Z,27.50
2022-11-18T01:43:23.522Z,27.60
2022-11-18T01:45:58.027Z,27.70
2022-11-18T01:48:38.849Z,27.80
2022-11-18T01:51:18.317Z,27.80
2022-11-18T01:54:29.812Z,27.90
2022-11-18T01:57:07.186Z,27.90
2022-11-18T01:59:42.271Z,28.00
2022-11-18T02:02:16.240Z,28.00
2022-11-18T02:04:50.894Z,28.10
2022-11-18T02:07:22.185Z,28.10
2022-11-18T02:09:54.148Z,28.20
2022-11-18T02:12:24.182Z,28.20
2022-11-18T02:14:54.267Z,28.20
2022-11-18T02:18:02.830Z,28.30
2022-11-18T02:21:39.437Z,28.30
2022-11-18T02:24:32.186Z,28.30
2022-11-18T02:27:54.124Z,28.40
2022-11-18T02:30:23.503Z,28.50
2022-11-18T02:33:13.942Z,28.50
2022-11-18T02:36:16.836Z,28.60
2022-11-18T02:38:53.359Z,28.60
2022-11-18T02:41:30.889Z,28.70
2022-11-18T02:44:13.646Z,28.80
2022-11-18T02:46:47.392Z,28.80
2022-11-18T02:49:39.794Z,28.90
2022-11-18T02:52:12.763Z,28.90
2022-11-18T02:54:47.760Z,29.00
2022-11-18T02:57:20.269Z,29.00
2022-11-18T02:59:49.612Z,29.10
2022-11-18T03:02:21.421Z,29.10
2022-11-18T03:04:56.399Z,29.20
2022-11-18T03:07:33.410Z,29.20
2022-11-18T03:10:04.749Z,29.30
2022-11-18T03:13:07.751Z,29.30
2022-11-18T03:16:00.482Z,29.40
2022-11-18T03:19:09.428Z,29.40
2022-11-18T03:21:49.058Z,29.50
2022-11-18T03:24:33.535Z,29.60
2022-11-18T03:27:23.196Z,29.60
2022-11-18T03:30:05.996Z,29.70
2022-11-18T03:32:43.213Z,29.80
2022-11-18T03:35:20.762Z,29.80
2022-11-18T03:37:57.594Z,29.90
2022-11-18T03:40:32.977Z,30.00
2022-11-18T03:43:27.539Z,30.10
2022-11-18T03:46:09.331Z,30.20
2022-11-18T03:48:55.235Z,30.20
2022-11-18T03:51:34.376Z,30.30
2022-11-18T03:54:24.213Z,30.40
2022-11-18T03:57:12.858Z,30.50
2022-11-18T04:00:08.889Z,30.60
2022-11-18T04:02:39.350Z,30.60
2022-11-18T04:05:13.999Z,30.70
2022-11-18T04:07:59.157Z,30.80
2022-11-18T04:10:44.432Z,30.90
2022-11-18T04:13:46.475Z,31.00
2022-11-18T04:16:15.728Z,31.10
2022-11-18T04:18:45.002Z,31.20
2022-11-18T04:21:14.273Z,31.30
2022-11-18T04:23:43.479Z,31.30
2022-11-18T04:26:13.821Z,31.40
2022-11-18T04:28:43.010Z,31.50
2022-11-18T04:31:12.183Z,31.60
2022-11-18T04:33:41.411Z,31.70
2022-11-18T04:36:11.009Z,31.80
2022-11-18T04:38:42.880Z,31.90
2022-11-18T04:41:12.019Z,31.90
2022-11-18T04:43:41.204Z,31.90
2022-11-18T04:46:10.696Z,32.00
2022-11-18T04:48:39.927Z,32.10
2022-11-18T04:51:09.258Z,32.20
2022-11-18T04:53:39.187Z,32.40
2022-11-18T04:56:09.409Z,32.50
2022-11-18T04:58:38.591Z,32.60
2022-11-18T05:01:07.814Z,32.70
2022-11-18T05:03:37.009Z,32.70
2022-11-18T05:06:06.345Z,32.70
2022-11-18T05:08:35.492Z,32.70
2022-11-18T05:11:27.928Z,32.70
2022-11-18T05:13:57.325Z,32.70
2022-11-18T05:16:26.713Z,32.80
2022-11-18T05:18:55.981Z,32.90
2022-11-18T05:21:25.210Z,33.00
2022-11-18T05:23:55.646Z,33.00
2022-11-18T05:26:24.851Z,33.00
2022-11-18T05:28:54.729Z,32.90
2022-11-18T05:31:24.177Z,32.80
2022-11-18T05:33:53.494Z,32.70
2022-11-18T05:36:23.940Z,32.70
2022-11-18T05:38:53.169Z,32.50
2022-11-18T05:41:41.089Z,32.50
2022-11-18T05:44:09.857Z,32.50
2022-11-18T05:46:39.097Z,32.60
2022-11-18T05:49:08.706Z,32.80
2022-11-18T05:51:38.035Z,33.00
2022-11-18T05:54:11.347Z,33.20
2022-11-18T05:56:45.857Z,33.30
2022-11-18T05:59:16.961Z,33.50
2022-11-18T06:01:57.401Z,33.70
2022-11-18T06:04:34.936Z,33.80
2022-11-18T06:07:17.335Z,33.90
2022-11-18T06:09:53.327Z,34.00
2022-11-18T06:12:30.199Z,34.10
2022-11-18T06:15:22.567Z,34.30
2022-11-18T06:18:33.036Z,34.40
2022-11-18T06:21:07.634Z,34.50
2022-11-18T06:23:41.693Z,34.70
2022-11-18T06:26:13.115Z,34.70
2022-11-18T06:28:45.009Z,34.70
2022-11-18T06:31:14.279Z,34.80
2022-11-18T06:33:43.672Z,34.80
2022-11-18T06:36:13.035Z,34.80
2022-11-18T06:38:42.252Z,34.80
2022-11-18T06:41:11.544Z,34.80
2022-11-18T06:43:42.413Z,34.80
2022-11-18T06:46:34.680Z,34.80
2022-11-18T06:49:04.671Z,34.80
2022-11-18T06:51:33.882Z,34.80
2022-11-18T06:54:10.166Z,34.80
2022-11-18T06:56:40.303Z,34.80
2022-11-18T06:59:09.730Z,34.80
2022-11-18T07:01:42.693Z,34.80
2022-11-18T07:04:11.895Z,34.80
2022-11-18T07:06:41.147Z,34.80
2022-11-18T07:09:10.425Z,34.90
2022-11-18T07:11:42.211Z,34.90
2022-11-18T07:14:12.453Z,35.00
2022-11-18T07:16:41.656Z,35.00
2022-11-18T07:19:14.884Z,35.10
2022-11-18T07:21:44.473Z,35.10
2022-11-18T07:24:16.709Z,35.20
2022-11-18T07:26:46.024Z,35.20
2022-11-18T07:29:15.444Z,35.20
2022-11-18T07:31:44.960Z,35.30
2022-11-18T07:34:15.334Z,35.30
2022-11-18T07:36:44.665Z,35.30
2022-11-18T07:39:13.875Z,35.30
2022-11-18T07:41:43.268Z,35.30
2022-11-18T07:44:15.456Z,35.30
2022-11-18T07:46:44.635Z,35.40
2022-11-18T07:49:14.305Z,35.40
2022-11-18T07:51:43.488Z,35.50
2022-11-18T07:54:18.115Z,35.50
2022-11-18T07:56:47.498Z,35.50
2022-11-18T07:59:16.961Z,35.40
2022-11-18T08:01:46.475Z,35.40
2022-11-18T08:04:16.265Z,35.30
2022-11-18T08:06:45.690Z,35.20
2022-11-18T08:09:15.342Z,35.20
2022-11-18T08:11:44.746Z,35.20
2022-11-18T08:14:13.980Z,35.10
2022-11-18T08:16:43.242Z,35.10
2022-11-18T08:19:12.435Z,35.10
2022-11-18T08:21:41.602Z,35.10
2022-11-18T08:24:13.757Z,35.10
2022-11-18T08:26:42.978Z,35.10
2022-11-18T08:29:12.301Z,35.10
2022-11-18T08:31:41.952Z,35.10
2022-11-18T08:34:13.989Z,35.10
2022-11-18T08:36:43.364Z,35.10
2022-11-18T08:39:14.137Z,35.10
2022-11-18T08:41:47.855Z,35.10
2022-11-18T08:44:18.650Z,35.10
2022-11-18T08:46:48.124Z,35.00
2022-11-18T08:49:17.625Z,35.10
2022-11-18T08:51:47.059Z,35.10
2022-11-18T08:54:16.426Z,35.00
2022-11-18T08:56:45.805Z,35.00
2022-11-18T08:59:15.532Z,35.10
2022-11-18T09:01:45.057Z,35.00
2022-11-18T09:04:14.321Z,35.00
2022-11-18T09:06:43.618Z,35.00
2022-11-18T09:09:13.073Z,34.90
2022-11-18T09:11:43.255Z,34.90
2022-11-18T09:15:11.615Z,34.90
2022-11-18T09:17:03.696Z,34.80
2022-11-18T09:19:46.842Z,34.80
2022-11-18T09:22:18.207Z,34.80
2022-11-18T09:24:47.495Z,34.80
2022-11-18T09:27:17.633Z,34.80
2022-11-18T09:29:47.735Z,34.80
2022-11-18T09:32:17.069Z,34.70
2022-11-18T09:34:46.429Z,34.70
2022-11-18T09:37:15.726Z,34.70
2022-11-18T09:39:44.969Z,34.60
2022-11-18T09:42:47.268Z,34.50
2022-11-18T09:45:39.605Z,34.50
2022-11-18T09:48:43.064Z,34.40
2022-11-18T09:51:14.565Z,34.30
2022-11-18T09:53:47.528Z,34.30
2022-11-18T09:56:18.541Z,34.20
2022-11-18T09:58:48.424Z,34.20
2022-11-18T10:01:22.684Z,34.10
2022-11-18T10:03:52.095Z,34.10
2022-11-18T10:06:33.520Z,34.00
2022-11-18T10:09:20.731Z,34.00
2022-11-18T10:12:23.395Z,33.90
2022-11-18T10:15:23.184Z,33.80
2022-11-18T10:21:39.989Z,33.60
2022-11-18T10:24:23.962Z,33.60
2022-11-18T10:27:01.570Z,33.40
2022-11-18T10:29:30.713Z,33.40
2022-11-18T10:32:15.991Z,33.30
2022-11-18T10:34:55.813Z,33.20
2022-11-18T10:38:00.253Z,33.10
2022-11-18T10:40:32.082Z,33.10
2022-11-18T10:43:01.701Z,32.90
2022-11-18T10:45:34.241Z,32.90
2022-11-18T10:48:20.163Z,32.80
2022-11-18T10:50:55.517Z,32.70
2022-11-18T10:53:38.379Z,32.60
2022-11-18T10:56:13.024Z,32.50
2022-11-18T10:58:53.863Z,32.40
2022-11-18T11:01:28.612Z,32.30
2022-11-18T11:04:28.400Z,32.30
2022-11-18T11:07:00.441Z,32.20
2022-11-18T11:09:32.578Z,32.20
2022-11-18T11:12:19.795Z,32.10
2022-11-18T11:15:04.535Z,32.00
2022-11-18T11:18:09.102Z,31.90
2022-11-18T11:20:39.467Z,31.90
2022-11-18T11:23:23.259Z,31.80
2022-11-18T11:29:47.916Z,31.60
2022-11-18T11:33:07.147Z,31.50
2022-11-18T11:36:03.425Z,31.50
2022-11-18T11:38:59.898Z,31.40
2022-11-18T11:41:48.577Z,31.40
2022-11-18T11:45:18.938Z,31.30
2022-11-18T11:48:03.805Z,31.30
2022-11-18T11:51:03.317Z,31.20
2022-11-18T11:54:04.164Z,31.20
2022-11-18T11:56:45.529Z,31.10
2022-11-18T12:00:03.633Z,31.10
2022-11-18T12:03:19.315Z,31.10
2022-11-18T12:05:48.495Z,31.10
2022-11-18T12:08:33.149Z,31.10
2022-11-18T12:11:33.459Z,31.00
2022-11-18T12:14:27.447Z,31.00
2022-11-18T12:17:34.545Z,30.90
2022-11-18T12:20:39.288Z,30.90
2022-11-18T12:23:17.315Z,30.90
2022-11-18T12:25:58.019Z,30.90
2022-11-18T12:28:37.441Z,30.80
2022-11-18T12:31:24.241Z,30.80
2022-11-18T12:34:02.666Z,30.70
2022-11-18T12:36:43.355Z,30.70
2022-11-18T12:39:28.306Z,30.70
2022-11-18T12:42:24.652Z,30.60
2022-11-18T12:44:57.494Z,30.60
2022-11-18T12:47:45.338Z,30.60
2022-11-18T12:50:17.288Z,30.50
2022-11-18T12:52:53.761Z,30.50
2022-11-18T12:55:33.363Z,30.50
2022-11-18T12:58:03.937Z,30.40
2022-11-18T13:00:55.558Z,30.40
2022-11-18T13:03:30.216Z,30.40
2022-11-18T13:06:10.236Z,30.40
2022-11-18T13:08:40.858Z,30.30
2022-11-18T13:11:41.563Z,30.30
2022-11-18T13:14:54.453Z,30.20
2022-11-18T13:17:59.515Z,30.20
2022-11-18T13:20:38.134Z,30.10
2022-11-18T13:23:54.876Z,30.10
2022-11-18T13:26:35.401Z,30.00
2022-11-18T13:29:30.012Z,30.00
2022-11-18T13:32:01.865Z,30.00
2022-11-18T13:34:33.620Z,29.90
2022-11-18T13:37:03.266Z,29.90
2022-11-18T13:39:35.588Z,29.90
2022-11-18T13:42:09.300Z,29.80
2022-11-18T13:44:40.226Z,29.80
2022-11-18T13:47:31.012Z,29.80
2022-11-18T13:50:17.840Z,29.80
2022-11-18T13:53:22.886Z,29.80
2022-11-18T13:56:07.823Z,29.80
2022-11-18T14:01:41.103Z,29.70
2022-11-18T14:04:26.210Z,29.60
2022-11-18T14:07:05.542Z,29.60
2022-11-18T14:09:34.753Z,29.60
2022-11-18T14:12:22.451Z,29.50
2022-11-18T14:14:51.654Z,29.40
2022-11-18T14:17:28.400Z,29.40
2022-11-18T14:20:12.852Z,29.30
2022-11-18T14:22:45.073Z,29.30
2022-11-18T14:25:30.937Z,29.30
2022-11-18T14:28:31.196Z,29.20
2022-11-18T14:31:18.169Z,29.20
2022-11-18T14:34:21.537Z,29.00
2022-11-18T14:36:52.834Z,29.00
2022-11-18T14:39:29.879Z,29.00
2022-11-18T14:42:00.555Z,28.90
2022-11-18T14:44:41.472Z,28.90
2022-11-18T14:47:36.444Z,28.80
2022-11-18T14:50:10.274Z,28.80
2022-11-18T14:52:40.447Z,28.80
2022-11-18T14:55:10.490Z,28.70
2022-11-18T14:57:39.737Z,28.70
2022-11-18T15:00:14.007Z,28.70
2022-11-18T15:02:43.738Z,28.60
2022-11-18T15:05:12.817Z,28.50
2022-11-18T15:07:41.961Z,28.50
2022-11-18T15:10:17.916Z,28.50
2022-11-18T15:12:47.452Z,28.40
2022-11-18T15:15:16.924Z,28.40
2022-11-18T15:17:48.499Z,28.30
2022-11-18T15:20:24.330Z,28.30
2022-11-18T15:22:53.495Z,28.30
2022-11-18T15:25:22.557Z,28.30
2022-11-18T15:27:51.620Z,28.30
2022-11-18T15:30:20.820Z,28.30
2022-11-18T15:32:49.915Z,28.30
2022-11-18T15:35:19.076Z,28.30
2022-11-18T15:37:48.196Z,28.30
2022-11-18T15:40:17.497Z,28.20
2022-11-18T15:42:51.741Z,28.20
2022-11-18T15:45:21.493Z,28.20
2022-11-18T15:47:53.338Z,28.20
2022-11-18T15:50:22.475Z,28.10
2022-11-18T15:52:51.588Z,28.10
2022-11-18T15:55:22.681Z,28.10
2022-11-18T15:57:52.029Z,28.10
2022-11-18T16:00:21.379Z,28.10
2022-11-18T16:02:50.525Z,28.00
2022-11-18T16:05:20.505Z,28.00
2022-11-18T16:07:54.666Z,28.00
2022-11-18T16:10:42.490Z,28.00
2022-11-18T16:13:11.654Z,28.00
2022-11-18T16:15:49.168Z,28.00
2022-11-18T16:18:20.502Z,28.00
2022-11-18T16:20:50.091Z,27.90
2022-11-18T16:23:19.258Z,27.90
2022-11-18T16:25:48.476Z,27.90
2022-11-18T16:28:17.792Z,27.90
2022-11-18T16:31:11.686Z,27.80
2022-11-18T16:33:40.906Z,27.90
2022-11-18T16:36:10.302Z,27.90
2022-11-18T16:38:39.469Z,27.80
2022-11-18T16:41:30.008Z,27.80
2022-11-18T16:44:06.543Z,27.80
2022-11-18T16:46:39.802Z,27.80
2022-11-18T16:49:13.896Z,27.80
2022-11-18T16:51:50.090Z,27.80
2022-11-18T16:54:22.107Z,27.80
2022-11-18T16:56:54.880Z,27.80
2022-11-18T16:59:30.743Z,27.80
2022-11-18T17:02:02.918Z,27.80
2022-11-18T17:04:32.591Z,27.80
2022-11-18T17:07:01.887Z,27.80
2022-11-18T17:09:31.200Z,27.70
2022-11-18T17:12:04.598Z,27.80
2022-11-18T17:14:33.752Z,27.70
2022-11-18T17:17:02.835Z,27.70
2022-11-18T17:19:31.903Z,27.70
2022-11-18T17:22:01.016Z,27.70
2022-11-18T17:24:30.073Z,27.70
2022-11-18T17:26:59.186Z,27.60
2022-11-18T17:29:28.322Z,27.60
2022-11-18T17:31:57.357Z,27.60
2022-11-18T17:34:26.461Z,27.70
2022-11-18T17:36:55.551Z,27.70
2022-11-18T17:39:24.661Z,27.60
2022-11-18T17:42:11.888Z,27.60
2022-11-18T17:44:41.403Z,27.60
2022-11-18T17:47:10.554Z,27.60
2022-11-18T17:49:39.756Z,27.60
2022-11-18T17:52:08.965Z,27.60
2022-11-18T17:54:38.425Z,27.60
2022-11-18T17:57:07.553Z,27.60
2022-11-18T17:59:36.616Z,27.60
2022-11-18T18:02:05.755Z,27.60
2022-11-18T18:04:34.931Z,27.60
2022-11-18T18:07:04.043Z,27.60
2022-11-18T18:09:33.370Z,27.50
2022-11-18T18:12:22.620Z,27.50
2022-11-18T18:14:52.011Z,27.50
2022-11-18T18:17:21.270Z,27.50
2022-11-18T18:19:50.448Z,27.50
2022-11-18T18:22:19.567Z,27.50
2022-11-18T18:24:48.622Z,27.50
2022-11-18T18:27:17.727Z,27.50
2022-11-18T18:29:46.779Z,27.50
2022-11-18T18:32:15.947Z,27.40
2022-11-18T18:34:45.038Z,27.40
2022-11-18T18:37:14.991Z,27.40
2022-11-18T18:39:44.112Z,27.40
2022-11-18T18:42:13.264Z,27.40
2022-11-18T18:45:00.891Z,27.40
2022-11-18T18:47:30.062Z,27.40
2022-11-18T18:49:59.105Z,27.40
2022-11-18T18:52:28.184Z,27.30
2022-11-18T18:54:57.285Z,27.40
2022-11-18T18:57:27.600Z,27.30
2022-11-18T18:59:56.912Z,27.30
2022-11-18T19:02:26.106Z,27.30
2022-11-18T19:04:56.060Z,27.30
2022-11-18T19:07:25.365Z,27.30
2022-11-18T19:09:54.713Z,27.20
2022-11-18T19:12:41.957Z,27.20
2022-11-18T19:15:14.249Z,27.20
2022-11-18T19:17:43.754Z,27.20
2022-11-18T19:20:33.675Z,27.20
2022-11-18T19:23:09.898Z,27.20
2022-11-18T19:25:39.771Z,27.10
2022-11-18T19:28:09.800Z,27.10
2022-11-18T19:30:39.358Z,27.10
2022-11-18T19:33:08.599Z,27.10
2022-11-18T19:35:39.128Z,27.00
2022-11-18T19:38:08.362Z,27.10
2022-11-18T19:40:37.554Z,27.00
2022-11-18T19:43:06.698Z,27.00
2022-11-18T19:45:35.865Z,27.00
2022-11-18T19:48:05.428Z,27.00
2022-11-18T19:50:34.586Z,27.00
2022-11-18T19:53:23.563Z,27.00
2022-11-18T19:56:01.740Z,27.00
2022-11-18T19:58:35.961Z,26.90
2022-11-18T20:01:24.224Z,27.00
2022-11-18T20:04:06.599Z,27.00
2022-11-18T20:06:38.362Z,26.90
2022-11-18T20:09:12.597Z,26.90
2022-11-18T20:11:42.139Z,26.90
2022-11-18T20:14:13.481Z,26.90
2022-11-18T20:16:43.336Z,26.90
2022-11-18T20:19:16.326Z,26.80
2022-11-18T20:21:48.832Z,26.80
2022-11-18T20:24:20.244Z,26.80
2022-11-18T20:26:49.736Z,26.80
2022-11-18T20:29:19.120Z,26.80
2022-11-18T20:31:48.492Z,26.70
2022-11-18T20:34:17.720Z,26.70
2022-11-18T20:36:48.820Z,26.70
2022-11-18T20:39:18.832Z,26.70
2022-11-18T20:42:14.416Z,26.60
2022-11-18T20:44:43.583Z,26.60
2022-11-18T20:47:12.924Z,26.60
2022-11-18T20:49:42.141Z,26.60
2022-11-18T20:52:11.324Z,26.50
2022-11-18T20:54:40.904Z,26.50
2022-11-18T20:57:11.165Z,26.50
2022-11-18T20:59:40.307Z,26.40
2022-11-18T21:02:10.256Z,26.40
2022-11-18T21:04:39.439Z,26.40
2022-11-18T21:07:08.615Z,26.40
2022-11-18T21:09:37.802Z,26.40
2022-11-18T21:12:07.112Z,26.30
2022-11-18T21:14:36.542Z,26.30
2022-11-18T21:17:06.655Z,26.30
2022-11-18T21:19:35.962Z,26.30
2022-11-18T21:22:05.553Z,26.20
2022-11-18T21:24:36.389Z,26.20
2022-11-18T21:27:06.626Z,26.20
2022-11-18T21:29:36.263Z,26.20
2022-11-18T21:32:05.492Z,26.20
2022-11-18T21:34:34.740Z,26.10
2022-11-18T21:37:03.977Z,26.10
2022-11-18T21:39:34.076Z,26.00
2022-11-18T21:42:03.297Z,26.00
2022-11-18T21:44:32.477Z,26.00
2022-11-18T21:47:01.617Z,25.90
2022-11-18T21:49:31.259Z,25.90
2022-11-18T21:52:00.440Z,25.90
2022-11-18T21:54:29.991Z,25.90
2022-11-18T21:56:59.262Z,25.90
2022-11-18T21:59:28.471Z,25.90
2022-11-18T22:01:57.782Z,25.90
2022-11-18T22:04:45.105Z,25.90
2022-11-18T22:07:14.394Z,25.90
2022-11-18T22:09:43.683Z,25.90
2022-11-18T22:12:12.871Z,25.80
2022-11-18T22:14:42.264Z,25.90
2022-11-18T22:17:12.037Z,25.80
2022-11-18T22:19:41.232Z,25.80
2022-11-18T22:22:10.465Z,25.80
2022-11-18T22:24:39.784Z,25.80
2022-11-18T22:27:11.500Z,25.70
2022-11-18T22:29:40.902Z,25.70
2022-11-18T22:32:10.049Z,25.60
2022-11-18T22:34:39.199Z,25.60
2022-11-18T22:37:08.538Z,25.60
2022-11-18T22:39:37.694Z,25.60
2022-11-18T22:42:24.909Z,25.60
2022-11-18T22:44:54.034Z,25.60
2022-11-18T22:47:23.192Z,25.60
2022-11-18T22:49:56.175Z,25.60
2022-11-18T22:52:25.722Z,25.60
2022-11-18T22:54:55.426Z,25.60
2022-11-18T22:57:24.681Z,25.60
2022-11-18T22:59:53.976Z,25.50
2022-11-18T23:02:23.171Z,25.60
2022-11-18T23:04:52.373Z,25.50
2022-11-18T23:07:21.557Z,25.50
2022-11-18T23:09:50.730Z,25.50
2022-11-18T23:12:38.298Z,25.40
2022-11-18T23:15:08.142Z,25.40
2022-11-18T23:17:37.361Z,25.40
2022-11-18T23:20:07.253Z,25.40
2022-11-18T23:22:36.398Z,25.40
2022-11-18T23:25:05.768Z,25.40
2022-11-18T23:27:34.981Z,25.30
2022-11-18T23:30:04.340Z,25.30
2022-11-18T23:32:33.495Z,25.30
2022-11-18T23:35:02.684Z,25.30
2022-11-18T23:37:31.849Z,25.30
2022-11-18T23:40:00.994Z,25.30
2022-11-18T23:42:30.190Z,25.30
2022-11-18T23:45:04.891Z,25.30
2022-11-18T23:47:36.909Z,25.30
2022-11-18T23:50:06.400Z,25.30
2022-11-18T23:52:35.703Z,25.30
2022-11-18T23:55:04.995Z,25.30
2022-11-18T23:57:34.551Z,25.30
